createdAt,value
2019-05-03T00:02:02.192Z,10.40
2019-05-03T00:04:46.100Z,11.73
2019-05-03T00:07:22.368Z,11.25
2019-05-03T00:15:07.649Z,11.33
2019-05-03T00:17:44.101Z,11.53
2019-05-03T00:20:26.398Z,11.35
2019-05-03T00:23:02.910Z,10.95
2019-05-03T00:25:45.310Z,10.95
2019-05-03T00:28:21.723Z,12.10
2019-05-03T00:31:04.438Z,12.80
2019-05-03T00:33:42.225Z,12.03
2019-05-03T00:36:49.618Z,12.28
2019-05-03T00:39:32.463Z,11.43
2019-05-03T00:42:15.408Z,12.05
2019-05-03T00:44:43.704Z,13.45
2019-05-03T00:47:25.478Z,13.05
2019-05-03T00:50:15.346Z,14.38
2019-05-03T00:52:58.162Z,15.28
2019-05-03T00:55:33.918Z,13.18
2019-05-03T00:58:16.458Z,13.88
2019-05-03T01:00:52.957Z,13.65
2019-05-03T01:06:04.645Z,14.70
2019-05-03T01:08:41.925Z,15.60
2019-05-03T01:11:24.979Z,14.78
2019-05-03T01:14:02.624Z,16.60
2019-05-03T01:21:38.361Z,20.33
2019-05-03T01:24:21.948Z,20.97
2019-05-03T01:26:57.298Z,20.20
2019-05-03T01:29:39.817Z,21.35
2019-05-03T01:32:15.375Z,29.10
2019-05-03T01:34:58.542Z,40.40
2019-05-03T01:37:34.610Z,31.27
2019-05-03T01:40:16.422Z,33.77
2019-05-03T01:42:52.020Z,40.80
2019-05-03T01:45:35.168Z,33.77
2019-05-03T01:48:32.274Z,30.70
2019-05-03T01:51:32.585Z,33.78
2019-05-03T01:54:22.885Z,33.27
2019-05-03T01:59:34.202Z,32.30
2019-05-03T02:02:36.781Z,32.97
2019-05-03T02:05:44.264Z,31.10
2019-05-03T02:08:26.668Z,31.17
2019-05-03T02:11:02.835Z,29.30
2019-05-03T02:13:45.510Z,29.05
2019-05-03T02:16:21.981Z,29.07
2019-05-03T02:19:04.922Z,29.82
2019-05-03T02:21:33.183Z,32.75
2019-05-03T02:24:02.564Z,30.77
2019-05-03T02:26:45.754Z,30.73
2019-05-03T02:29:27.942Z,30.80
2019-05-03T02:32:03.693Z,27.10
2019-05-03T02:34:53.569Z,25.47
2019-05-03T02:37:36.882Z,26.43
2019-05-03T02:40:13.700Z,25.23
2019-05-03T02:46:06.347Z,28.60
2019-05-03T02:51:17.032Z,28.20
2019-05-03T02:54:05.672Z,26.27
2019-05-03T02:56:41.991Z,26.48
2019-05-03T03:01:55.575Z,26.70
2019-05-03T03:04:45.387Z,24.15
2019-05-03T03:07:28.578Z,22.67
2019-05-03T03:10:06.381Z,16.82
2019-05-03T03:12:51.792Z,16.05
2019-05-03T03:15:28.536Z,15.85
2019-05-03T03:18:15.728Z,15.40
2019-05-03T03:20:55.340Z,14.20
2019-05-03T03:23:41.737Z,14.60
2019-05-03T03:26:34.561Z,14.63
2019-05-03T03:31:51.886Z,14.55
2019-05-03T03:34:27.564Z,14.33
2019-05-03T03:37:10.585Z,12.82
2019-05-03T03:39:38.456Z,12.53
2019-05-03T03:42:08.124Z,13.75
2019-05-03T03:44:51.124Z,13.28
2019-05-03T03:47:20.659Z,11.70
2019-05-03T03:50:06.096Z,13.55
2019-05-03T03:52:55.986Z,13.38
2019-05-03T03:55:35.330Z,12.03
2019-05-03T03:58:22.882Z,11.90
2019-05-03T04:01:05.853Z,12.50
2019-05-03T04:03:41.571Z,11.30
2019-05-03T04:06:09.137Z,10.82
2019-05-03T04:08:45.547Z,12.03
2019-05-03T04:11:21.161Z,10.80
2019-05-03T04:13:49.840Z,11.68
2019-05-03T04:16:56.817Z,10.50
2019-05-03T04:19:36.456Z,10.35
2019-05-03T04:24:51.611Z,11.53
2019-05-03T04:32:29.048Z,11.45
2019-05-03T04:35:11.828Z,12.73
2019-05-03T04:38:00.592Z,12.58
2019-05-03T04:40:45.632Z,11.75
2019-05-03T04:43:26.141Z,12.63
2019-05-03T04:46:16.405Z,10.53
2019-05-03T04:48:52.749Z,11.25
2019-05-03T04:51:35.300Z,11.78
2019-05-03T04:54:39.797Z,10.20
2019-05-03T04:57:36.388Z,10.85
2019-05-03T05:00:00.099Z,9.98
2019-05-03T05:02:42.485Z,9.90
2019-05-03T05:05:19.119Z,9.70
2019-05-03T05:08:05.934Z,9.60
2019-05-03T05:10:46.700Z,10.20
2019-05-03T05:13:31.970Z,9.80
2019-05-03T05:16:07.459Z,9.83
2019-05-03T05:18:56.526Z,11.05
2019-05-03T05:21:39.124Z,9.70
2019-05-03T05:24:21.710Z,10.88
2019-05-03T05:27:14.607Z,10.45
2019-05-03T05:30:00.195Z,12.40
2019-05-03T05:32:38.026Z,11.95
2019-05-03T05:35:24.834Z,11.57
2019-05-03T05:38:00.848Z,12.85
2019-05-03T05:40:45.110Z,13.88
2019-05-03T05:43:21.758Z,14.07
2019-05-03T05:46:05.531Z,14.43
2019-05-03T05:48:46.946Z,15.95
2019-05-03T05:51:30.072Z,16.77
2019-05-03T05:54:06.746Z,16.48
2019-05-03T05:57:05.158Z,15.30
2019-05-03T06:00:04.994Z,16.95
2019-05-03T06:02:46.940Z,16.17
2019-05-03T06:05:25.252Z,15.38
2019-05-03T06:13:54.618Z,11.68
2019-05-03T06:16:34.968Z,10.38
2019-05-03T06:19:28.636Z,11.00
2019-05-03T06:22:29.879Z,8.45
2019-05-03T06:27:47.434Z,6.95
2019-05-03T06:30:51.920Z,7.92
2019-05-03T06:33:28.256Z,6.50
2019-05-03T06:36:10.489Z,6.83
2019-05-03T06:38:46.308Z,5.35
2019-05-03T06:41:30.216Z,5.50
2019-05-03T06:44:06.646Z,5.50
2019-05-03T06:46:50.498Z,5.15
2019-05-03T06:49:18.966Z,4.72
2019-05-03T06:52:01.900Z,5.10
2019-05-03T06:54:51.515Z,4.90
2019-05-03T06:57:35.390Z,4.95
2019-05-03T07:00:35.168Z,4.40
2019-05-03T07:06:11.298Z,4.63
2019-05-03T07:09:19.846Z,4.83
2019-05-03T07:12:08.842Z,3.90
2019-05-03T07:14:54.851Z,2.90
2019-05-03T07:17:31.386Z,2.90
2019-05-03T07:22:44.512Z,3.00
2019-05-03T07:25:21.198Z,3.93
2019-05-03T07:28:05.059Z,4.10
2019-05-03T07:30:41.236Z,4.30
2019-05-03T07:33:29.921Z,4.10
2019-05-03T07:36:06.206Z,4.17
2019-05-03T07:38:48.160Z,3.43
2019-05-03T07:41:26.897Z,3.43
2019-05-03T07:44:09.018Z,3.60
2019-05-03T07:46:45.319Z,3.27
2019-05-03T07:49:28.152Z,4.10
2019-05-03T07:51:56.447Z,3.80
2019-05-03T07:54:39.064Z,4.60
2019-05-03T07:57:14.930Z,4.20
2019-05-03T07:59:58.904Z,4.30
2019-05-03T08:02:47.983Z,4.23
2019-05-03T08:05:30.674Z,4.90
2019-05-03T08:08:06.308Z,4.20
2019-05-03T08:10:49.328Z,4.27
2019-05-03T08:13:32.078Z,4.50
2019-05-03T08:18:37.981Z,4.50
2019-05-03T08:21:15.022Z,5.70
2019-05-03T08:28:55.738Z,4.90
2019-05-03T08:34:49.950Z,4.77
2019-05-03T08:37:29.603Z,4.77
2019-05-03T08:40:15.455Z,4.80
2019-05-03T08:42:51.077Z,4.23
2019-05-03T08:45:36.667Z,5.20
2019-05-03T08:48:14.895Z,5.27
2019-05-03T08:51:00.485Z,5.30
2019-05-03T08:53:51.137Z,4.53
2019-05-03T08:59:04.531Z,5.43
2019-05-03T09:01:40.107Z,4.60
2019-05-03T09:04:34.237Z,7.10
2019-05-03T09:07:00.422Z,7.73
2019-05-03T09:09:41.100Z,6.20
2019-05-03T09:12:18.578Z,5.03
2019-05-03T09:17:30.886Z,4.80
2019-05-03T09:20:06.154Z,4.93
2019-05-03T09:25:18.034Z,6.47
2019-05-03T09:28:00.989Z,3.50
2019-05-03T09:30:37.511Z,3.53
2019-05-03T09:38:05.975Z,4.07
2019-05-03T09:40:51.925Z,2.93
2019-05-03T09:43:35.788Z,4.10
2019-05-03T09:46:26.497Z,4.50
2019-05-03T09:49:13.674Z,4.47
2019-05-03T09:51:48.525Z,4.13
2019-05-03T09:54:39.595Z,4.50
2019-05-03T09:57:19.071Z,5.00
2019-05-03T10:00:04.955Z,3.20
2019-05-03T10:02:35.303Z,3.40
2019-05-03T10:05:17.291Z,2.93
2019-05-03T10:08:01.012Z,3.10
2019-05-03T10:10:46.986Z,3.70
2019-05-03T10:13:26.611Z,4.73
2019-05-03T10:16:09.055Z,3.80
2019-05-03T10:18:45.943Z,3.80
2019-05-03T10:21:31.503Z,3.20
2019-05-03T10:24:07.131Z,3.33
2019-05-03T10:29:19.129Z,3.00
2019-05-03T10:32:15.124Z,4.27
2019-05-03T10:34:58.455Z,4.57
2019-05-03T10:37:40.882Z,3.00
2019-05-03T10:40:17.149Z,3.37
2019-05-03T10:42:59.517Z,3.20
2019-05-03T10:45:40.652Z,4.17
2019-05-03T10:48:24.618Z,3.47
2019-05-03T10:51:04.735Z,3.90
2019-05-03T10:53:50.251Z,3.10
2019-05-03T10:56:37.659Z,3.93
2019-05-03T10:59:20.290Z,3.80
2019-05-03T11:01:48.639Z,3.10
2019-05-03T11:04:32.139Z,3.90
2019-05-03T11:07:21.680Z,3.00
2019-05-03T11:15:03.020Z,3.47
2019-05-03T11:17:39.209Z,3.80
2019-05-03T11:20:29.049Z,4.60
2019-05-03T11:23:02.354Z,4.33
2019-05-03T11:25:37.005Z,5.50
2019-05-03T11:28:35.398Z,4.30
2019-05-03T11:31:37.107Z,3.80
2019-05-03T11:34:25.364Z,4.50
2019-05-03T11:37:25.086Z,5.13
2019-05-03T11:40:09.668Z,4.23
2019-05-03T11:42:46.113Z,4.23
2019-05-03T11:45:15.226Z,3.93
2019-05-03T11:47:58.733Z,3.40
2019-05-03T11:50:35.166Z,4.00
2019-05-03T11:53:17.726Z,3.70
2019-05-03T11:55:55.208Z,4.20
2019-05-03T11:58:38.212Z,4.13
2019-05-03T12:01:25.408Z,4.10
2019-05-03T12:04:11.706Z,5.27
2019-05-03T12:06:47.270Z,3.70
2019-05-03T12:09:30.112Z,3.97
2019-05-03T12:12:08.185Z,4.40
2019-05-03T12:14:50.560Z,3.43
2019-05-03T12:17:29.779Z,3.53
2019-05-03T12:22:39.644Z,4.03
2019-05-03T12:25:17.512Z,3.60
2019-05-03T12:28:00.842Z,4.50
2019-05-03T12:30:31.359Z,4.33
2019-05-03T12:33:15.355Z,4.10
2019-05-03T12:35:50.299Z,4.13
2019-05-03T12:38:34.938Z,3.73
2019-05-03T12:41:25.448Z,3.70
2019-05-03T12:46:38.383Z,3.50
2019-05-03T12:49:16.948Z,3.90
2019-05-03T12:56:53.024Z,4.43
2019-05-03T12:59:47.585Z,4.13
2019-05-03T13:05:26.388Z,4.10
2019-05-03T13:08:24.824Z,4.00
2019-05-03T13:13:38.393Z,3.73
2019-05-03T13:16:25.046Z,4.90
2019-05-03T13:19:01.340Z,4.13
2019-05-03T13:21:45.022Z,4.80
2019-05-03T13:24:23.232Z,5.00
2019-05-03T13:27:05.640Z,4.33
2019-05-03T13:29:41.668Z,4.60
2019-05-03T13:37:19.392Z,4.93
2019-05-03T13:40:07.679Z,3.90
2019-05-03T13:42:57.239Z,6.40
2019-05-03T13:45:29.438Z,4.40
2019-05-03T13:48:19.891Z,4.87
2019-05-03T13:50:55.175Z,4.60
2019-05-03T13:55:56.718Z,4.30
2019-05-03T13:58:33.012Z,4.70
2019-05-03T14:01:16.580Z,5.50
2019-05-03T14:03:54.528Z,6.23
2019-05-03T14:09:07.791Z,4.63
2019-05-03T14:11:55.194Z,4.80
2019-05-03T14:14:32.498Z,4.70
2019-05-03T14:17:00.130Z,4.53
2019-05-03T14:19:34.792Z,4.60
2019-05-03T14:22:19.212Z,3.90
2019-05-03T14:25:04.496Z,4.43
2019-05-03T14:27:54.994Z,4.43
2019-05-03T14:30:38.866Z,4.90
2019-05-03T14:33:15.276Z,4.37
2019-05-03T14:36:07.000Z,5.30
2019-05-03T14:38:51.272Z,4.93
2019-05-03T14:41:36.927Z,5.30
2019-05-03T14:44:15.594Z,4.70
2019-05-03T14:46:59.172Z,4.93
2019-05-03T14:49:35.430Z,4.67
2019-05-03T14:52:17.957Z,4.90
2019-05-03T14:54:55.973Z,4.40
2019-05-03T14:57:44.402Z,4.60
2019-05-03T15:00:31.377Z,4.37
2019-05-03T15:03:15.903Z,4.73
2019-05-03T15:05:44.760Z,4.93
2019-05-03T15:08:27.525Z,6.20
2019-05-03T15:11:22.937Z,19.33
2019-05-03T15:14:29.392Z,6.63
2019-05-03T15:17:00.897Z,5.50
2019-05-03T15:19:45.392Z,6.10
2019-05-03T15:22:22.300Z,6.10
2019-05-03T15:25:05.164Z,6.10
2019-05-03T15:27:40.767Z,6.30
2019-05-03T15:30:23.091Z,5.73
2019-05-03T15:33:00.845Z,6.00
2019-05-03T15:40:41.404Z,5.27
2019-05-03T15:43:34.817Z,5.67
2019-05-03T15:46:38.848Z,7.10
2019-05-03T15:49:08.361Z,5.93
2019-05-03T15:51:53.851Z,6.50
2019-05-03T15:54:44.506Z,6.57
2019-05-03T15:57:26.997Z,7.10
2019-05-03T16:00:02.650Z,8.27
2019-05-03T16:02:44.807Z,8.47
2019-05-03T16:05:21.230Z,6.30
2019-05-03T16:08:04.614Z,6.40
2019-05-03T16:10:41.645Z,5.17
2019-05-03T16:13:25.316Z,6.47
2019-05-03T16:16:01.334Z,7.20
2019-05-03T16:23:29.291Z,6.07
2019-05-03T16:26:05.299Z,6.07
2019-05-03T16:34:09.753Z,5.80
2019-05-03T16:36:52.072Z,5.40
2019-05-03T16:39:28.368Z,6.27
2019-05-03T16:42:10.807Z,5.60
2019-05-03T16:44:46.617Z,5.73
2019-05-03T16:52:32.192Z,15.87
2019-05-03T16:55:16.466Z,5.07
2019-05-03T16:57:58.749Z,7.40
2019-05-03T17:00:27.190Z,6.93
2019-05-03T17:03:10.305Z,8.30
2019-05-03T17:11:39.441Z,6.00
2019-05-03T17:14:21.465Z,7.93
2019-05-03T17:17:00.159Z,6.50
2019-05-03T17:19:44.801Z,6.70
2019-05-03T17:22:25.179Z,6.90
2019-05-03T17:25:09.065Z,4.10
2019-05-03T17:27:50.132Z,6.77
2019-05-03T17:32:59.771Z,5.90
2019-05-03T17:35:35.971Z,4.60
2019-05-03T17:38:18.271Z,6.90
2019-05-03T17:41:11.853Z,5.93
2019-05-03T17:44:04.962Z,6.93
2019-05-03T17:46:40.960Z,5.33
2019-05-03T17:49:24.044Z,5.70
2019-05-03T17:52:22.283Z,5.57
2019-05-03T17:55:24.452Z,5.70
2019-05-03T17:58:04.497Z,12.07
2019-05-03T18:01:07.379Z,6.90
2019-05-03T18:03:46.177Z,7.70
2019-05-03T18:09:21.949Z,5.10
2019-05-03T18:12:06.506Z,7.17
2019-05-03T18:14:49.157Z,7.77
2019-05-03T18:17:25.337Z,6.77
2019-05-03T18:20:07.388Z,7.07
2019-05-03T18:22:42.973Z,9.27
2019-05-03T18:25:25.459Z,6.50
2019-05-03T18:28:01.191Z,8.30
2019-05-03T18:30:43.109Z,6.40
2019-05-03T18:33:19.526Z,6.10
2019-05-03T18:36:02.752Z,7.03
2019-05-03T18:38:45.680Z,5.83
2019-05-03T18:41:21.169Z,7.40
2019-05-03T18:44:18.259Z,14.77
2019-05-03T18:47:11.395Z,9.27
2019-05-03T18:52:22.595Z,6.73
2019-05-03T18:55:05.098Z,7.20
2019-05-03T18:57:32.705Z,7.40
2019-05-03T19:00:15.511Z,9.83
2019-05-03T19:02:51.931Z,6.20
2019-05-03T19:05:35.875Z,9.00
2019-05-03T19:08:35.112Z,11.63
2019-05-03T19:11:35.196Z,7.90
2019-05-03T19:14:37.342Z,8.13
2019-05-03T19:17:35.646Z,7.67
2019-05-03T19:20:17.738Z,6.67
2019-05-03T19:23:00.589Z,7.10
2019-05-03T19:25:46.252Z,6.73
2019-05-03T19:28:19.023Z,6.10
2019-05-03T19:31:06.316Z,6.73
2019-05-03T19:33:42.846Z,6.27
2019-05-03T19:36:15.148Z,7.20
2019-05-03T19:39:00.109Z,7.12
2019-05-03T19:41:29.413Z,7.85
2019-05-03T19:44:20.454Z,6.58
2019-05-03T19:46:48.278Z,6.83
2019-05-03T19:49:35.386Z,13.58
2019-05-03T19:52:05.211Z,7.43
2019-05-03T19:54:55.463Z,7.15
2019-05-03T19:57:28.324Z,6.47
2019-05-03T20:00:15.943Z,8.13
2019-05-03T20:03:00.647Z,7.80
2019-05-03T20:08:45.899Z,7.83
2019-05-03T20:11:29.176Z,7.97
2019-05-03T20:14:11.349Z,7.72
2019-05-03T20:19:25.791Z,12.35
2019-05-03T20:22:10.198Z,9.43
2019-05-03T20:24:46.190Z,7.78
2019-05-03T20:27:32.148Z,8.53
2019-05-03T20:30:09.830Z,8.33
2019-05-03T20:35:18.765Z,20.70
2019-05-03T20:37:57.737Z,10.32
2019-05-03T20:40:26.141Z,9.20
2019-05-03T20:43:25.659Z,10.38
2019-05-03T20:46:10.874Z,11.73
2019-05-03T20:49:10.746Z,9.35
2019-05-03T20:51:51.048Z,9.00
2019-05-03T20:54:32.169Z,9.13
2019-05-03T20:57:08.448Z,8.55
2019-05-03T20:59:54.380Z,9.55
2019-05-03T21:02:30.889Z,10.53
2019-05-03T21:05:26.745Z,13.58
2019-05-03T21:07:54.993Z,11.95
2019-05-03T21:13:08.791Z,13.15
2019-05-03T21:16:14.650Z,32.17
2019-05-03T21:19:02.363Z,12.78
2019-05-03T21:21:44.584Z,11.70
2019-05-03T21:24:19.834Z,11.73
2019-05-03T21:29:30.826Z,14.03
2019-05-03T21:32:19.384Z,12.75
2019-05-03T21:37:35.052Z,13.38
2019-05-03T21:40:11.866Z,13.95
2019-05-03T21:47:55.831Z,14.85
2019-05-03T21:50:39.460Z,13.65
2019-05-03T21:53:28.180Z,14.85
2019-05-03T21:56:10.763Z,14.50
2019-05-03T21:58:46.752Z,13.75
2019-05-03T22:01:29.218Z,14.15
2019-05-03T22:04:05.748Z,14.38
2019-05-03T22:06:48.582Z,16.17
2019-05-03T22:09:24.969Z,28.42
2019-05-03T22:12:07.885Z,19.27
2019-05-03T22:15:05.154Z,16.62
2019-05-03T22:18:01.622Z,18.02
2019-05-03T22:20:55.439Z,17.73
2019-05-03T22:23:56.363Z,18.07
2019-05-03T22:26:50.523Z,18.42
2019-05-03T22:29:35.445Z,24.25
2019-05-03T22:32:10.529Z,24.85
2019-05-03T22:34:52.712Z,23.30
2019-05-03T22:37:29.272Z,21.12
2019-05-03T22:40:11.340Z,20.52
2019-05-03T22:42:47.004Z,19.85
2019-05-03T22:45:29.270Z,20.43
2019-05-03T22:48:05.560Z,20.82
2019-05-03T22:50:48.577Z,22.80
2019-05-03T22:53:25.376Z,22.48
2019-05-03T22:56:08.156Z,21.82
2019-05-03T22:58:45.709Z,21.42
2019-05-03T23:03:49.966Z,22.22
2019-05-03T23:06:25.477Z,30.43
2019-05-03T23:09:08.638Z,24.32
2019-05-03T23:11:44.867Z,22.90
2019-05-03T23:16:55.069Z,23.45
2019-05-03T23:19:45.460Z,25.27
2019-05-03T23:25:02.740Z,29.40
2019-05-03T23:27:45.578Z,23.15
2019-05-03T23:30:21.274Z,23.62
2019-05-03T23:33:04.554Z,26.30
2019-05-03T23:35:40.312Z,21.70
2019-05-03T23:38:24.690Z,21.80
2019-05-03T23:41:00.590Z,20.43
2019-05-03T23:43:45.154Z,20.70
2019-05-03T23:46:25.784Z,16.70
2019-05-03T23:49:08.272Z,17.15
2019-05-03T23:51:51.957Z,14.68
2019-05-03T23:54:35.556Z,12.80
2019-05-03T23:57:25.201Z,14.33
